sensor_id;sensor_type;location;lat;lon;timestamp;pressure;altitude;pressure_sealevel;temperature;humidity
10948;BME280;5526;42.070;24.752;2022-10-13T00:01:34;99707.63;;;12.41;87.93
10948;BME280;5526;42.070;24.752;2022-10-13T00:04:01;99748.91;;;12.74;87.96
10948;BME280;5526;42.070;24.752;2022-10-13T00:06:30;99749.38;;;12.66;88.05
10948;BME280;5526;42.070;24.752;2022-10-13T00:08:58;99713.66;;;12.37;88.40
10948;BME280;5526;42.070;24.752;2022-10-13T00:11:27;99715.06;;;12.44;88.45
10948;BME280;5526;42.070;24.752;2022-10-13T00:13:57;99720.69;;;12.53;88.50
10948;BME280;5526;42.070;24.752;2022-10-13T00:16:25;99741.44;;;12.66;88.63
10948;BME280;5526;42.070;24.752;2022-10-13T00:18:53;99718.91;;;12.58;88.82
10948;BME280;5526;42.070;24.752;2022-10-13T00:21:22;99735.66;;;12.69;88.71
10948;BME280;5526;42.070;24.752;2022-10-13T00:23:52;99760.44;;;12.89;88.56
10948;BME280;5526;42.070;24.752;2022-10-13T00:26:21;99756.41;;;12.82;88.48
10948;BME280;5526;42.070;24.752;2022-10-13T00:28:49;99699.03;;;12.51;88.25
10948;BME280;5526;42.070;24.752;2022-10-13T00:31:18;99720.00;;;12.62;88.29
10948;BME280;5526;42.070;24.752;2022-10-13T00:33:45;99699.53;;;12.48;88.46
10948;BME280;5526;42.070;24.752;2022-10-13T00:36:14;99700.56;;;12.47;88.78
10948;BME280;5526;42.070;24.752;2022-10-13T00:38:41;99759.78;;;12.77;89.20
10948;BME280;5526;42.070;24.752;2022-10-13T00:41:11;99753.44;;;12.78;89.40
10948;BME280;5526;42.070;24.752;2022-10-13T00:43:50;99729.19;;;12.55;89.93
10948;BME280;5526;42.070;24.752;2022-10-13T00:46:19;99711.75;;;12.32;90.55
10948;BME280;5526;42.070;24.752;2022-10-13T00:48:48;99752.69;;;12.56;91.48
10948;BME280;5526;42.070;24.752;2022-10-13T00:51:19;99734.03;;;12.41;91.58
10948;BME280;5526;42.070;24.752;2022-10-13T00:53:48;99723.00;;;12.23;92.58
10948;BME280;5526;42.070;24.752;2022-10-13T00:56:18;99735.94;;;12.24;93.52
10948;BME280;5526;42.070;24.752;2022-10-13T00:58:48;99699.41;;;11.95;93.72
10948;BME280;5526;42.070;24.752;2022-10-13T01:01:16;99744.47;;;12.10;94.18
10948;BME280;5526;42.070;24.752;2022-10-13T01:03:43;99703.31;;;11.71;94.74
10948;BME280;5526;42.070;24.752;2022-10-13T01:06:11;99726.00;;;11.72;95.72
10948;BME280;5526;42.070;24.752;2022-10-13T01:08:39;99761.50;;;11.81;95.98
10948;BME280;5526;42.070;24.752;2022-10-13T01:11:18;99733.38;;;11.70;95.16
10948;BME280;5526;42.070;24.752;2022-10-13T01:13:51;99734.00;;;11.77;94.77
10948;BME280;5526;42.070;24.752;2022-10-13T01:16:31;99693.44;;;11.61;94.33
10948;BME280;5526;42.070;24.752;2022-10-13T01:19:19;99726.34;;;11.75;94.38
10948;BME280;5526;42.070;24.752;2022-10-13T01:22:01;99703.56;;;11.69;94.58
10948;BME280;5526;42.070;24.752;2022-10-13T01:24:49;99724.63;;;11.86;94.67
10948;BME280;5526;42.070;24.752;2022-10-13T01:27:56;99755.44;;;12.02;94.71
10948;BME280;5526;42.070;24.752;2022-10-13T01:30:30;99762.16;;;12.09;94.91
10948;BME280;5526;42.070;24.752;2022-10-13T01:33:17;99715.13;;;11.85;94.47
10948;BME280;5526;42.070;24.752;2022-10-13T01:36:00;99768.84;;;12.17;94.40
10948;BME280;5526;42.070;24.752;2022-10-13T01:38:35;99707.63;;;11.77;94.34
10948;BME280;5526;42.070;24.752;2022-10-13T01:41:12;99736.91;;;11.97;94.50
10948;BME280;5526;42.070;24.752;2022-10-13T01:43:44;99783.75;;;12.28;94.23
10948;BME280;5526;42.070;24.752;2022-10-13T01:46:17;99753.19;;;12.10;93.85
10948;BME280;5526;42.070;24.752;2022-10-13T01:48:46;99720.84;;;11.98;93.50
10948;BME280;5526;42.070;24.752;2022-10-13T01:51:17;99736.00;;;12.08;93.07
10948;BME280;5526;42.070;24.752;2022-10-13T01:53:46;99722.84;;;11.91;93.54
10948;BME280;5526;42.070;24.752;2022-10-13T01:56:14;99700.69;;;11.71;93.84
10948;BME280;5526;42.070;24.752;2022-10-13T01:58:42;99685.91;;;11.70;93.92
10948;BME280;5526;42.070;24.752;2022-10-13T02:01:35;99718.81;;;11.84;93.77
10948;BME280;5526;42.070;24.752;2022-10-13T02:04:22;99692.16;;;11.64;93.95
10948;BME280;5526;42.070;24.752;2022-10-13T02:06:52;99713.81;;;11.66;94.92
10948;BME280;5526;42.070;24.752;2022-10-13T02:09:28;99741.97;;;11.82;95.16
10948;BME280;5526;42.070;24.752;2022-10-13T02:12:03;99707.31;;;11.73;94.79
10948;BME280;5526;42.070;24.752;2022-10-13T02:14:33;99741.56;;;11.90;94.52
10948;BME280;5526;42.070;24.752;2022-10-13T02:17:04;99767.91;;;12.06;94.33
10948;BME280;5526;42.070;24.752;2022-10-13T02:19:35;99697.13;;;11.60;95.01
10948;BME280;5526;42.070;24.752;2022-10-13T02:22:04;99668.84;;;11.39;94.66
10948;BME280;5526;42.070;24.752;2022-10-13T02:24:32;99755.88;;;11.77;95.08
10948;BME280;5526;42.070;24.752;2022-10-13T02:27:00;99734.84;;;11.61;95.38
10948;BME280;5526;42.070;24.752;2022-10-13T02:29:28;99701.09;;;11.46;95.12
10948;BME280;5526;42.070;24.752;2022-10-13T02:31:55;99711.09;;;11.61;95.04
10948;BME280;5526;42.070;24.752;2022-10-13T02:34:24;99722.63;;;11.60;95.33
10948;BME280;5526;42.070;24.752;2022-10-13T02:36:52;99673.56;;;11.37;95.90
10948;BME280;5526;42.070;24.752;2022-10-13T02:39:19;99704.06;;;11.50;95.54
10948;BME280;5526;42.070;24.752;2022-10-13T02:41:46;99728.56;;;11.67;95.54
10948;BME280;5526;42.070;24.752;2022-10-13T02:44:15;99698.84;;;11.55;95.51
10948;BME280;5526;42.070;24.752;2022-10-13T02:46:42;99711.50;;;11.53;95.47
10948;BME280;5526;42.070;24.752;2022-10-13T02:49:10;99677.31;;;11.25;96.07
10948;BME280;5526;42.070;24.752;2022-10-13T02:51:39;99685.31;;;11.30;96.31
10948;BME280;5526;42.070;24.752;2022-10-13T02:54:07;99711.03;;;11.39;96.52
10948;BME280;5526;42.070;24.752;2022-10-13T02:56:37;99669.03;;;11.16;96.69
10948;BME280;5526;42.070;24.752;2022-10-13T02:59:06;99703.13;;;11.39;96.21
10948;BME280;5526;42.070;24.752;2022-10-13T03:01:34;99702.25;;;11.34;96.89
10948;BME280;5526;42.070;24.752;2022-10-13T03:04:06;99696.16;;;11.33;96.20
10948;BME280;5526;42.070;24.752;2022-10-13T03:06:33;99681.63;;;11.31;96.01
10948;BME280;5526;42.070;24.752;2022-10-13T03:09:02;99707.16;;;11.47;95.63
10948;BME280;5526;42.070;24.752;2022-10-13T03:11:29;99731.38;;;11.60;95.54
10948;BME280;5526;42.070;24.752;2022-10-13T03:13:57;99754.00;;;11.73;95.35
10948;BME280;5526;42.070;24.752;2022-10-13T03:16:25;99703.19;;;11.44;95.46
10948;BME280;5526;42.070;24.752;2022-10-13T03:18:52;99698.09;;;11.38;95.32
10948;BME280;5526;42.070;24.752;2022-10-13T03:21:20;99746.09;;;11.73;95.38
10948;BME280;5526;42.070;24.752;2022-10-13T03:23:48;99673.31;;;11.22;95.57
10948;BME280;5526;42.070;24.752;2022-10-13T03:26:18;99745.22;;;11.67;95.73
10948;BME280;5526;42.070;24.752;2022-10-13T03:28:48;99650.19;;;11.08;95.31
10948;BME280;5526;42.070;24.752;2022-10-13T03:31:17;99685.63;;;11.33;95.27
10948;BME280;5526;42.070;24.752;2022-10-13T03:33:45;99688.66;;;11.25;95.71
10948;BME280;5526;42.070;24.752;2022-10-13T03:36:12;99694.56;;;11.16;96.90
10948;BME280;5526;42.070;24.752;2022-10-13T03:38:40;99744.31;;;11.45;96.71
10948;BME280;5526;42.070;24.752;2022-10-13T03:41:10;99662.47;;;10.86;97.76
10948;BME280;5526;42.070;24.752;2022-10-13T03:43:40;99666.56;;;10.93;97.42
10948;BME280;5526;42.070;24.752;2022-10-13T03:46:10;99698.88;;;11.22;97.14
10948;BME280;5526;42.070;24.752;2022-10-13T03:48:39;99674.88;;;11.02;97.04
10948;BME280;5526;42.070;24.752;2022-10-13T03:51:07;99685.00;;;11.10;97.17
10948;BME280;5526;42.070;24.752;2022-10-13T03:53:35;99742.94;;;11.43;96.93
10948;BME280;5526;42.070;24.752;2022-10-13T03:56:04;99743.19;;;11.41;96.95
10948;BME280;5526;42.070;24.752;2022-10-13T03:58:33;99683.31;;;11.04;96.60
10948;BME280;5526;42.070;24.752;2022-10-13T04:01:04;99665.84;;;10.81;98.25
10948;BME280;5526;42.070;24.752;2022-10-13T04:03:32;99661.66;;;10.69;99.18
10948;BME280;5526;42.070;24.752;2022-10-13T04:06:00;99664.88;;;10.71;99.49
10948;BME280;5526;42.070;24.752;2022-10-13T04:08:28;99665.19;;;10.74;99.88
10948;BME280;5526;42.070;24.752;2022-10-13T04:11:00;99650.16;;;10.58;100.00
10948;BME280;5526;42.070;24.752;2022-10-13T04:13:28;99676.41;;;10.70;100.00
10948;BME280;5526;42.070;24.752;2022-10-13T04:16:02;99693.72;;;10.66;100.00
10948;BME280;5526;42.070;24.752;2022-10-13T04:18:31;99744.28;;;10.96;100.00
10948;BME280;5526;42.070;24.752;2022-10-13T04:20:58;99681.44;;;10.55;100.00
10948;BME280;5526;42.070;24.752;2022-10-13T04:23:28;99701.06;;;10.64;100.00
10948;BME280;5526;42.070;24.752;2022-10-13T04:25:56;99680.31;;;10.51;100.00
10948;BME280;5526;42.070;24.752;2022-10-13T04:28:23;99731.03;;;10.91;100.00
10948;BME280;5526;42.070;24.752;2022-10-13T04:30:51;99739.97;;;11.06;100.00
10948;BME280;5526;42.070;24.752;2022-10-13T04:33:19;99736.22;;;11.02;100.00
10948;BME280;5526;42.070;24.752;2022-10-13T04:35:49;99687.06;;;10.75;100.00
10948;BME280;5526;42.070;24.752;2022-10-13T04:38:20;99666.47;;;10.72;100.00
10948;BME280;5526;42.070;24.752;2022-10-13T04:40:48;99711.97;;;11.00;100.00
10948;BME280;5526;42.070;24.752;2022-10-13T04:43:18;99710.47;;;11.04;100.00
10948;BME280;5526;42.070;24.752;2022-10-13T04:45:49;99664.72;;;10.77;99.93
10948;BME280;5526;42.070;24.752;2022-10-13T04:48:19;99726.41;;;11.14;100.00
10948;BME280;5526;42.070;24.752;2022-10-13T04:50:47;99691.78;;;10.89;99.90
10948;BME280;5526;42.070;24.752;2022-10-13T04:53:26;99749.25;;;11.25;100.00
10948;BME280;5526;42.070;24.752;2022-10-13T04:55:55;99730.91;;;11.14;100.00
10948;BME280;5526;42.070;24.752;2022-10-13T04:58:22;99682.97;;;10.84;99.88
10948;BME280;5526;42.070;24.752;2022-10-13T05:00:50;99737.19;;;11.29;99.46
10948;BME280;5526;42.070;24.752;2022-10-13T05:03:19;99755.97;;;11.49;99.55
10948;BME280;5526;42.070;24.752;2022-10-13T05:05:47;99728.59;;;11.34;99.05
10948;BME280;5526;42.070;24.752;2022-10-13T05:08:17;99711.25;;;11.21;99.01
10948;BME280;5526;42.070;24.752;2022-10-13T05:10:54;99718.59;;;11.36;97.93
10948;BME280;5526;42.070;24.752;2022-10-13T05:13:22;99714.78;;;11.27;97.90
10948;BME280;5526;42.070;24.752;2022-10-13T05:15:50;99703.13;;;11.23;97.27
10948;BME280;5526;42.070;24.752;2022-10-13T05:18:19;99747.59;;;11.52;96.83
10948;BME280;5526;42.070;24.752;2022-10-13T05:20:46;99756.69;;;11.61;97.00
10948;BME280;5526;42.070;24.752;2022-10-13T05:23:15;99718.34;;;11.37;96.64
10948;BME280;5526;42.070;24.752;2022-10-13T05:25:43;99669.59;;;11.02;97.34
10948;BME280;5526;42.070;24.752;2022-10-13T05:28:10;99696.03;;;11.23;97.06
10948;BME280;5526;42.070;24.752;2022-10-13T05:30:38;99748.47;;;11.58;96.72
10948;BME280;5526;42.070;24.752;2022-10-13T05:33:06;99703.00;;;11.51;96.19
10948;BME280;5526;42.070;24.752;2022-10-13T05:35:35;99725.63;;;11.80;95.28
10948;BME280;5526;42.070;24.752;2022-10-13T05:38:02;99661.53;;;11.46;94.96
10948;BME280;5526;42.070;24.752;2022-10-13T05:40:30;99731.63;;;11.97;94.47
10948;BME280;5526;42.070;24.752;2022-10-13T05:43:00;99691.81;;;11.77;93.88
10948;BME280;5526;42.070;24.752;2022-10-13T05:45:28;99730.06;;;11.96;94.59
10948;BME280;5526;42.070;24.752;2022-10-13T05:47:58;99703.00;;;11.84;95.00
10948;BME280;5526;42.070;24.752;2022-10-13T05:50:26;99704.34;;;11.86;94.98
10948;BME280;5526;42.070;24.752;2022-10-13T05:52:56;99771.09;;;12.51;94.33
10948;BME280;5526;42.070;24.752;2022-10-13T05:55:23;99787.03;;;12.83;93.73
10948;BME280;5526;42.070;24.752;2022-10-13T05:57:51;99769.38;;;12.83;93.07
10948;BME280;5526;42.070;24.752;2022-10-13T06:00:19;99726.19;;;12.73;92.86
10948;BME280;5526;42.070;24.752;2022-10-13T06:02:51;99705.44;;;12.86;92.69
10948;BME280;5526;42.070;24.752;2022-10-13T06:05:21;99730.59;;;13.16;92.67
10948;BME280;5526;42.070;24.752;2022-10-13T06:07:51;99792.09;;;13.74;92.24
10948;BME280;5526;42.070;24.752;2022-10-13T06:10:22;99719.50;;;13.55;90.96
10948;BME280;5526;42.070;24.752;2022-10-13T06:12:50;99715.81;;;13.56;90.33
10948;BME280;5526;42.070;24.752;2022-10-13T06:15:17;99713.22;;;13.66;89.92
10948;BME280;5526;42.070;24.752;2022-10-13T06:17:45;99726.63;;;13.91;89.38
10948;BME280;5526;42.070;24.752;2022-10-13T06:20:12;99765.03;;;14.09;89.44
10948;BME280;5526;42.070;24.752;2022-10-13T06:22:41;99748.19;;;13.73;90.09
10948;BME280;5526;42.070;24.752;2022-10-13T06:25:08;99755.31;;;13.73;90.95
10948;BME280;5526;42.070;24.752;2022-10-13T06:27:37;99774.63;;;13.68;88.45
10948;BME280;5526;42.070;24.752;2022-10-13T06:30:06;99725.72;;;13.39;88.21
10948;BME280;5526;42.070;24.752;2022-10-13T06:32:33;99740.97;;;13.64;88.88
10948;BME280;5526;42.070;24.752;2022-10-13T06:35:01;99766.84;;;13.93;87.81
10948;BME280;5526;42.070;24.752;2022-10-13T06:37:29;99752.63;;;14.09;87.72
10948;BME280;5526;42.070;24.752;2022-10-13T06:39:56;99760.66;;;14.24;86.56
10948;BME280;5526;42.070;24.752;2022-10-13T06:42:24;99767.63;;;14.40;86.26
10948;BME280;5526;42.070;24.752;2022-10-13T06:44:57;99772.94;;;14.45;85.77
10948;BME280;5526;42.070;24.752;2022-10-13T06:47:24;99728.56;;;14.16;86.14
10948;BME280;5526;42.070;24.752;2022-10-13T06:49:51;99781.50;;;14.67;85.10
10948;BME280;5526;42.070;24.752;2022-10-13T06:52:19;99720.81;;;14.71;83.64
10948;BME280;5526;42.070;24.752;2022-10-13T06:54:46;99746.84;;;15.34;81.65
10948;BME280;5526;42.070;24.752;2022-10-13T06:57:14;99706.56;;;15.32;80.12
10948;BME280;5526;42.070;24.752;2022-10-13T06:59:41;99713.72;;;15.56;78.70
10948;BME280;5526;42.070;24.752;2022-10-13T07:02:12;99784.44;;;16.21;74.81
10948;BME280;5526;42.070;24.752;2022-10-13T07:04:40;99735.88;;;16.05;75.63
10948;BME280;5526;42.070;24.752;2022-10-13T07:07:07;99741.91;;;16.36;73.82
10948;BME280;5526;42.070;24.752;2022-10-13T07:09:34;99720.38;;;16.32;72.83
10948;BME280;5526;42.070;24.752;2022-10-13T07:12:02;99733.56;;;16.62;71.67
10948;BME280;5526;42.070;24.752;2022-10-13T07:14:29;99704.50;;;16.22;71.98
10948;BME280;5526;42.070;24.752;2022-10-13T07:16:57;99735.47;;;16.47;71.89
10948;BME280;5526;42.070;24.752;2022-10-13T07:19:27;99703.88;;;16.45;71.38
10948;BME280;5526;42.070;24.752;2022-10-13T07:21:55;99719.63;;;16.75;69.89
10948;BME280;5526;42.070;24.752;2022-10-13T07:24:23;99690.84;;;16.39;70.55
10948;BME280;5526;42.070;24.752;2022-10-13T07:26:51;99719.19;;;16.63;69.31
10948;BME280;5526;42.070;24.752;2022-10-13T07:29:18;99722.13;;;16.62;68.94
10948;BME280;5526;42.070;24.752;2022-10-13T07:31:46;99711.41;;;16.77;68.43
10948;BME280;5526;42.070;24.752;2022-10-13T07:34:14;99751.84;;;17.08;67.33
10948;BME280;5526;42.070;24.752;2022-10-13T07:36:43;99724.47;;;17.07;65.31
10948;BME280;5526;42.070;24.752;2022-10-13T07:39:11;99748.97;;;17.04;65.99
10948;BME280;5526;42.070;24.752;2022-10-13T07:41:39;99728.19;;;16.67;66.92
10948;BME280;5526;42.070;24.752;2022-10-13T07:44:06;99727.81;;;16.45;67.58
10948;BME280;5526;42.070;24.752;2022-10-13T07:46:34;99754.19;;;16.75;66.42
10948;BME280;5526;42.070;24.752;2022-10-13T07:49:01;99671.69;;;16.47;64.94
10948;BME280;5526;42.070;24.752;2022-10-13T07:51:28;99692.88;;;16.67;64.66
10948;BME280;5526;42.070;24.752;2022-10-13T07:53:57;99695.41;;;16.82;63.62
10948;BME280;5526;42.070;24.752;2022-10-13T07:56:25;99706.78;;;16.92;64.86
10948;BME280;5526;42.070;24.752;2022-10-13T07:58:52;99681.50;;;16.90;64.19
10948;BME280;5526;42.070;24.752;2022-10-13T08:01:20;99747.88;;;17.39;63.58
10948;BME280;5526;42.070;24.752;2022-10-13T08:03:47;99699.41;;;17.18;62.90
10948;BME280;5526;42.070;24.752;2022-10-13T08:06:15;99709.94;;;16.94;63.31
10948;BME280;5526;42.070;24.752;2022-10-13T08:08:42;99738.94;;;17.30;62.90
10948;BME280;5526;42.070;24.752;2022-10-13T08:11:14;99702.31;;;16.83;63.12
10948;BME280;5526;42.070;24.752;2022-10-13T08:13:44;99712.78;;;16.69;63.90
10948;BME280;5526;42.070;24.752;2022-10-13T08:16:12;99664.38;;;16.72;63.90
10948;BME280;5526;42.070;24.752;2022-10-13T08:18:40;99689.13;;;16.63;65.13
10948;BME280;5526;42.070;24.752;2022-10-13T08:21:12;99717.81;;;17.10;65.37
10948;BME280;5526;42.070;24.752;2022-10-13T08:23:42;99733.47;;;17.50;64.52
10948;BME280;5526;42.070;24.752;2022-10-13T08:26:18;99663.03;;;17.09;64.78
10948;BME280;5526;42.070;24.752;2022-10-13T08:28:46;99721.84;;;17.02;66.30
10948;BME280;5526;42.070;24.752;2022-10-13T08:31:14;99735.75;;;17.28;65.35
10948;BME280;5526;42.070;24.752;2022-10-13T08:33:49;99654.75;;;16.76;66.04
10948;BME280;5526;42.070;24.752;2022-10-13T08:36:18;99665.97;;;16.73;67.14
10948;BME280;5526;42.070;24.752;2022-10-13T08:38:46;99714.81;;;17.50;66.20
10948;BME280;5526;42.070;24.752;2022-10-13T08:41:17;99651.06;;;17.06;66.04
10948;BME280;5526;42.070;24.752;2022-10-13T08:43:47;99643.25;;;16.91;65.07
10948;BME280;5526;42.070;24.752;2022-10-13T08:46:22;99672.47;;;17.25;64.97
10948;BME280;5526;42.070;24.752;2022-10-13T08:48:51;99679.50;;;17.39;63.72
10948;BME280;5526;42.070;24.752;2022-10-13T08:51:19;99659.38;;;17.28;65.11
10948;BME280;5526;42.070;24.752;2022-10-13T08:53:47;99663.06;;;17.84;63.50
10948;BME280;5526;42.070;24.752;2022-10-13T08:56:18;99663.69;;;18.00;62.08
10948;BME280;5526;42.070;24.752;2022-10-13T08:58:48;99691.66;;;18.44;61.55
10948;BME280;5526;42.070;24.752;2022-10-13T09:01:18;99717.19;;;18.87;59.62
10948;BME280;5526;42.070;24.752;2022-10-13T09:03:51;99652.25;;;18.60;58.57
10948;BME280;5526;42.070;24.752;2022-10-13T09:06:22;99666.56;;;18.64;59.51
10948;BME280;5526;42.070;24.752;2022-10-13T09:08:55;99708.94;;;19.02;59.73
10948;BME280;5526;42.070;24.752;2022-10-13T09:11:30;99669.53;;;18.62;57.93
10948;BME280;5526;42.070;24.752;2022-10-13T09:14:01;99655.06;;;19.00;57.59
10948;BME280;5526;42.070;24.752;2022-10-13T09:16:36;99668.66;;;19.36;57.00
10948;BME280;5526;42.070;24.752;2022-10-13T09:19:22;99650.63;;;19.28;54.11
10948;BME280;5526;42.070;24.752;2022-10-13T09:21:51;99657.50;;;19.61;55.59
10948;BME280;5526;42.070;24.752;2022-10-13T09:24:20;99646.81;;;19.88;55.18
10948;BME280;5526;42.070;24.752;2022-10-13T09:26:51;99654.94;;;20.10;53.52
10948;BME280;5526;42.070;24.752;2022-10-13T09:29:28;99637.94;;;20.41;52.73
10948;BME280;5526;42.070;24.752;2022-10-13T09:32:12;99669.81;;;20.51;51.88
10948;BME280;5526;42.070;24.752;2022-10-13T09:34:40;99650.00;;;20.74;51.10
10948;BME280;5526;42.070;24.752;2022-10-13T09:37:17;99629.91;;;20.85;50.66
10948;BME280;5526;42.070;24.752;2022-10-13T09:39:45;99668.19;;;21.30;49.75
10948;BME280;5526;42.070;24.752;2022-10-13T09:42:23;99668.59;;;21.15;47.91
10948;BME280;5526;42.070;24.752;2022-10-13T09:44:56;99658.44;;;20.90;49.64
10948;BME280;5526;42.070;24.752;2022-10-13T09:47:25;99632.44;;;20.82;50.83
10948;BME280;5526;42.070;24.752;2022-10-13T09:50:00;99645.88;;;21.13;49.11
10948;BME280;5526;42.070;24.752;2022-10-13T09:52:28;99612.75;;;21.00;49.97
10948;BME280;5526;42.070;24.752;2022-10-13T09:54:57;99625.50;;;22.37;44.45
10948;BME280;5526;42.070;24.752;2022-10-13T09:57:34;99612.84;;;22.04;46.19
10948;BME280;5526;42.070;24.752;2022-10-13T10:00:14;99638.41;;;22.01;47.24
10948;BME280;5526;42.070;24.752;2022-10-13T10:02:48;99619.19;;;22.08;45.96
10948;BME280;5526;42.070;24.752;2022-10-13T10:05:24;99625.78;;;22.02;47.24
10948;BME280;5526;42.070;24.752;2022-10-13T10:07:55;99598.16;;;21.93;47.75
10948;BME280;5526;42.070;24.752;2022-10-13T10:10:31;99582.88;;;22.02;46.23
10948;BME280;5526;42.070;24.752;2022-10-13T10:13:01;99611.94;;;22.42;45.85
10948;BME280;5526;42.070;24.752;2022-10-13T10:15:35;99564.59;;;22.21;44.25
10948;BME280;5526;42.070;24.752;2022-10-13T10:18:10;99588.91;;;22.58;45.35
10948;BME280;5526;42.070;24.752;2022-10-13T10:20:48;99586.38;;;22.45;44.43
10948;BME280;5526;42.070;24.752;2022-10-13T10:23:21;99563.03;;;22.37;44.84
10948;BME280;5526;42.070;24.752;2022-10-13T10:25:57;99549.59;;;22.03;44.66
10948;BME280;5526;42.070;24.752;2022-10-13T10:28:47;99558.47;;;22.54;44.13
10948;BME280;5526;42.070;24.752;2022-10-13T10:31:24;99566.97;;;22.73;43.92
10948;BME280;5526;42.070;24.752;2022-10-13T10:34:09;99553.41;;;23.24;42.31
10948;BME280;5526;42.070;24.752;2022-10-13T10:36:48;99538.91;;;23.08;44.09
10948;BME280;5526;42.070;24.752;2022-10-13T10:39:25;99525.38;;;22.96;43.74
10948;BME280;5526;42.070;24.752;2022-10-13T10:42:02;99500.78;;;22.77;42.81
10948;BME280;5526;42.070;24.752;2022-10-13T10:44:35;99527.69;;;23.06;43.19
10948;BME280;5526;42.070;24.752;2022-10-13T10:47:12;99527.66;;;23.23;42.19
10948;BME280;5526;42.070;24.752;2022-10-13T10:49:42;99508.28;;;23.01;43.49
10948;BME280;5526;42.070;24.752;2022-10-13T10:52:19;99548.31;;;23.60;43.04
10948;BME280;5526;42.070;24.752;2022-10-13T10:54:54;99499.22;;;23.22;42.76
10948;BME280;5526;42.070;24.752;2022-10-13T10:57:28;99516.59;;;23.16;42.41
10948;BME280;5526;42.070;24.752;2022-10-13T11:00:05;99498.13;;;23.23;42.39
10948;BME280;5526;42.070;24.752;2022-10-13T11:02:47;99504.69;;;23.34;42.50
10948;BME280;5526;42.070;24.752;2022-10-13T11:05:18;99486.72;;;23.18;43.34
10948;BME280;5526;42.070;24.752;2022-10-13T11:07:58;99486.69;;;23.26;42.05
10948;BME280;5526;42.070;24.752;2022-10-13T11:10:27;99529.50;;;23.60;41.95
10948;BME280;5526;42.070;24.752;2022-10-13T11:13:19;99500.63;;;23.28;41.49
10948;BME280;5526;42.070;24.752;2022-10-13T11:15:48;99529.78;;;23.67;41.40
10948;BME280;5526;42.070;24.752;2022-10-13T11:25:00;99458.25;;;22.96;40.90
10948;BME280;5526;42.070;24.752;2022-10-13T11:27:42;99498.81;;;23.03;40.67
10948;BME280;5526;42.070;24.752;2022-10-13T11:30:42;99488.31;;;23.19;40.67
10948;BME280;5526;42.070;24.752;2022-10-13T11:36:42;99432.91;;;22.77;41.75
10948;BME280;5526;42.070;24.752;2022-10-13T11:51:48;99457.50;;;22.87;41.35
10948;BME280;5526;42.070;24.752;2022-10-13T11:54:28;99408.09;;;22.80;41.47
10948;BME280;5526;42.070;24.752;2022-10-13T11:56:59;99453.56;;;23.22;41.41
10948;BME280;5526;42.070;24.752;2022-10-13T11:59:28;99428.16;;;23.40;40.10
10948;BME280;5526;42.070;24.752;2022-10-13T12:01:57;99418.66;;;23.43;39.67
10948;BME280;5526;42.070;24.752;2022-10-13T12:04:27;99405.56;;;23.41;39.80
10948;BME280;5526;42.070;24.752;2022-10-13T12:07:00;99395.34;;;23.35;38.75
10948;BME280;5526;42.070;24.752;2022-10-13T12:09:29;99397.38;;;23.38;38.94
10948;BME280;5526;42.070;24.752;2022-10-13T12:12:01;99409.28;;;23.69;38.72
10948;BME280;5526;42.070;24.752;2022-10-13T12:14:32;99426.00;;;23.75;37.92
10948;BME280;5526;42.070;24.752;2022-10-13T12:17:01;99414.66;;;23.69;37.91
10948;BME280;5526;42.070;24.752;2022-10-13T12:19:30;99415.38;;;23.78;38.21
10948;BME280;5526;42.070;24.752;2022-10-13T12:22:00;99421.94;;;23.89;38.10
10948;BME280;5526;42.070;24.752;2022-10-13T12:24:29;99416.63;;;23.81;37.91
10948;BME280;5526;42.070;24.752;2022-10-13T12:26:57;99388.25;;;23.71;37.55
10948;BME280;5526;42.070;24.752;2022-10-13T12:29:26;99411.44;;;23.96;36.99
10948;BME280;5526;42.070;24.752;2022-10-13T12:31:54;99405.81;;;23.89;37.00
10948;BME280;5526;42.070;24.752;2022-10-13T12:34:26;99391.44;;;23.85;36.78
10948;BME280;5526;42.070;24.752;2022-10-13T12:36:57;99393.88;;;23.78;37.25
10948;BME280;5526;42.070;24.752;2022-10-13T12:39:27;99390.41;;;23.98;36.91
10948;BME280;5526;42.070;24.752;2022-10-13T12:41:57;99386.25;;;24.01;36.27
10948;BME280;5526;42.070;24.752;2022-10-13T12:44:29;99401.81;;;23.95;36.53
10948;BME280;5526;42.070;24.752;2022-10-13T12:46:58;99408.31;;;24.27;36.29
10948;BME280;5526;42.070;24.752;2022-10-13T12:49:29;99387.44;;;23.91;36.71
10948;BME280;5526;42.070;24.752;2022-10-13T12:52:03;99374.41;;;23.81;37.26
10948;BME280;5526;42.070;24.752;2022-10-13T12:54:37;99404.00;;;24.14;37.00
10948;BME280;5526;42.070;24.752;2022-10-13T12:57:14;99380.56;;;24.14;35.38
10948;BME280;5526;42.070;24.752;2022-10-13T12:59:43;99401.31;;;24.14;36.09
10948;BME280;5526;42.070;24.752;2022-10-13T13:02:18;99394.50;;;24.16;36.02
10948;BME280;5526;42.070;24.752;2022-10-13T13:04:46;99353.41;;;23.95;36.00
10948;BME280;5526;42.070;24.752;2022-10-13T13:07:29;99335.69;;;23.41;35.61
10948;BME280;5526;42.070;24.752;2022-10-13T13:10:13;99357.88;;;24.36;34.40
10948;BME280;5526;42.070;24.752;2022-10-13T13:12:41;99343.69;;;23.70;35.56
10948;BME280;5526;42.070;24.752;2022-10-13T13:15:32;99395.81;;;24.10;35.18
10948;BME280;5526;42.070;24.752;2022-10-13T13:18:27;99393.38;;;24.17;35.61
10948;BME280;5526;42.070;24.752;2022-10-13T13:20:56;99363.31;;;23.83;35.61
10948;BME280;5526;42.070;24.752;2022-10-13T13:23:26;99363.94;;;24.00;35.25
10948;BME280;5526;42.070;24.752;2022-10-13T13:26:04;99347.28;;;24.07;34.99
10948;BME280;5526;42.070;24.752;2022-10-13T13:28:34;99394.28;;;24.33;34.89
10948;BME280;5526;42.070;24.752;2022-10-13T13:31:02;99344.47;;;24.03;34.50
10948;BME280;5526;42.070;24.752;2022-10-13T13:33:29;99348.50;;;23.97;34.11
10948;BME280;5526;42.070;24.752;2022-10-13T13:35:57;99337.59;;;23.94;33.86
10948;BME280;5526;42.070;24.752;2022-10-13T13:38:24;99334.50;;;23.71;33.50
10948;BME280;5526;42.070;24.752;2022-10-13T13:40:52;99370.66;;;23.94;33.47
10948;BME280;5526;42.070;24.752;2022-10-13T13:43:21;99355.13;;;24.00;34.03